Aviation Digital Data Service (ADDS)

Output produced by METARs form (1328 UTC 26 May 2018)
found at http://www.aviationweather.gov/adds/metars/
 
ESSA 261320Z 23004KT 170V330 CAVOK 25/01 Q1027 NOSIG
TAF ESSA 261130Z 2612/2712 22003KT CAVOK 
     BECMG 2615/2618 03010KT
       
ESNX 261320Z AUTO 29013KT 9999 NCD 13/M04 Q1030
ESCF 261320Z AUTO 02006KT 9999 FEW200/// 24/10 Q1027
ESCM 261320Z VRB02KT CAVOK 26/07 Q1027
ESDF 261320Z 06012KT 9999 BKN010TCU 18/17 Q1026
ESGG 261320Z 06004KT 020V110 CAVOK 25/08 Q1026
TAF ESGG 261130Z 2612/2712 06005KT CAVOK
       
ESGJ 261320Z AUTO 09005KT 9999 NCD 22/08 Q1027
ESGR 261320Z AUTO VRB04KT 9999 NCD 24/02 Q1027
ESIB 261320Z 02012KT CAVOK 23/08 Q1027
ESKM 261320Z AUTO 15004KT 110V260 9999 NCD 23/05 Q1028
ESKN 261320Z 17010KT CAVOK 24/09 Q1027
TAF ESKN 261130Z 2612/2712 15010KT CAVOK 
     BECMG 2619/2621 03005KT
       
ESMK 261320Z 09010KT 050V110 9999 SCT046 BKN057 21/13 Q1025
ESMQ 261320Z 03007KT 9999 FEW008 BKN043 BKN053 18/14 Q1027
ESMS 261320Z 05010KT 030V090 CAVOK 22/14 Q1025
TAF ESMS 261113Z 2612/2712 07012KT CAVOK 
     TEMPO 2612/2621 SCT040CB 
     PROB40 
     TEMPO 2612/2619 4000 TSRA 
     BECMG 2622/2624 BKN006 
     TEMPO 2700/2706 4000 BR FEW008 
     BECMG 2706/2708 SCT030
       
ESMT 261320Z 09008KT 060V120 9999 FEW076CB SCT090 19/13 Q1026
ESMX 261320Z 02006KT 9999 -RA FEW046 16/14 Q1027
ESND 261320Z AUTO 10005KT 030V180 9999 NCD 22/05 Q1029
ESNG 261320Z AUTO 27016KT 9999 NCD 13/M05 Q1027
ESNK 261320Z AUTO 33006KT 270V040 9999 NCD 22/M01 Q1029
ESNL 261320Z AUTO 32010KT 280V360 9999 FEW028/// 18/M06 Q1029
ESNN 261320Z AUTO 15010KT 9999 NCD 19/07 Q1029
ESNO 261320Z AUTO 16010KT 9999 NCD 21/07 Q1028
ESNQ 261320Z AUTO 27017KT 9999 NCD 10/M06 Q1027
ESNS 261320Z AUTO 31006KT 250V020 9999 NCD 20/M04 Q1028
ESNU 261320Z 17010KT CAVOK 17/04 Q1029
ESNV 261320Z AUTO 28010KT 9999 FEW170/// 16/M06 Q1030
ESNX 261320Z AUTO 29013KT 9999 NCD 13/M04 Q1030
ESNZ 261320Z 30012KT CAVOK 16/03 Q1031
ESOE 261320Z AUTO 13007KT 100V190 9999 NCD 26/06 Q1027
ESOK 261320Z 22007KT 180V250 CAVOK 25/08 Q1027
ESOW 261320Z 19009KT CAVOK 25/03 Q1027
ESPA 261320Z 29015KT CAVOK 17/M03 Q1027
ESPE 261320Z AUTO 32016KT 9999 FEW210/// 15/M04 Q1029
ESSA 261320Z 23004KT 170V330 CAVOK 25/01 Q1027 NOSIG
TAF ESSA 261130Z 2612/2712 22003KT CAVOK 
     BECMG 2615/2618 03010KT
       
ESSB 261320Z VRB03KT CAVOK 25/05 Q1027
ESSD 261320Z AUTO 06005KT 010V120 9999 NCD 24/07 Q1028
ESSL 261320Z AUTO 11006KT 070V170 9999 FEW160/// 24/08 Q1027
ESSP 261320Z 10006KT 070V170 CAVOK 25/08 Q1027
ESST 261320Z AUTO 33005KT 290V020 9999 NCD 26/11 Q1028
ESSV 261320Z 15009KT CAVOK 21/12 Q1027
ESTA 261320Z 01011KT CAVOK 19/13 Q1025
ESTL 261320Z AUTO 08009KT 9999 FEW058/// 22/12 Q1025
ESUP 261320Z AUTO /////KT 9999 NCD ///// Q////
ESUT 261320Z AUTO 30009KT 270V330 9999 FEW044/// BKN120/// 09/M01 Q1032
ESSD 261320Z AUTO 06005KT 010V120 9999 NCD 24/07 Q1028
ESSB 261320Z VRB03KT CAVOK 25/05 Q1027
ESNG 261320Z AUTO 27016KT 9999 NCD 13/M05 Q1027
ESMT 261320Z 09008KT 060V120 9999 FEW076CB SCT090 19/13 Q1026
ESUT 261320Z AUTO 30009KT 270V330 9999 FEW044/// BKN120/// 09/M01 Q1032
ESGJ 261320Z AUTO 09005KT 9999 NCD 22/08 Q1027
ESPA 261320Z 29015KT CAVOK 17/M03 Q1027
ESMQ 261320Z 03007KT 9999 FEW008 BKN043 BKN053 18/14 Q1027
ESIA 261320Z AUTO 09005KT 050V120 9999 FEW200/// 23/09 Q1027
ESOK 261320Z 22007KT 180V250 CAVOK 25/08 Q1027
ESNQ 261320Z AUTO 27017KT 9999 NCD 10/M06 Q1027
ESNK 261320Z AUTO 33006KT 270V040 9999 NCD 22/M01 Q1029
ESMK 261320Z 09010KT 050V110 9999 SCT046 BKN057 21/13 Q1025
ESMX 261320Z 02006KT 9999 -RA FEW046 16/14 Q1027
ESSP 261320Z 10006KT 070V170 CAVOK 25/08 Q1027
ESGG 261320Z 06004KT 020V110 CAVOK 25/08 Q1026
TAF ESGG 261130Z 2612/2712 06005KT CAVOK
       
ESTL 261320Z AUTO 08009KT 9999 FEW058/// 22/12 Q1025
ESNL 261320Z AUTO 32010KT 280V360 9999 FEW028/// 18/M06 Q1029
ESCF 261320Z AUTO 02006KT 9999 FEW200/// 24/10 Q1027
ESKM 261320Z AUTO 15004KT 110V260 9999 NCD 23/05 Q1028
ESOE 261320Z AUTO 13007KT 100V190 9999 NCD 26/06 Q1027
ESNO 261320Z AUTO 16010KT 9999 NCD 21/07 Q1028
ESUP 261320Z AUTO /////KT 9999 NCD ///// Q////
ESDF 261320Z 06012KT 9999 BKN010TCU 18/17 Q1026
ESSL 261320Z AUTO 11006KT 070V170 9999 FEW160/// 24/08 Q1027
ESIB 261320Z 02012KT CAVOK 23/08 Q1027
ESKN 261320Z 17010KT CAVOK 24/09 Q1027
TAF ESKN 261130Z 2612/2712 15010KT CAVOK 
     BECMG 2619/2621 03005KT
       
ESNS 261320Z AUTO 31006KT 250V020 9999 NCD 20/M04 Q1028
ESGR 261320Z AUTO VRB04KT 9999 NCD 24/02 Q1027
ESMS 261320Z 05010KT 030V090 CAVOK 22/14 Q1025
TAF ESMS 261113Z 2612/2712 07012KT CAVOK 
     TEMPO 2612/2621 SCT040CB 
     PROB40 
     TEMPO 2612/2619 4000 TSRA 
     BECMG 2622/2624 BKN006 
     TEMPO 2700/2706 4000 BR FEW008 
     BECMG 2706/2708 SCT030
       
ESNN 261320Z AUTO 15010KT 9999 NCD 19/07 Q1029
ESND 261320Z AUTO 10005KT 030V180 9999 NCD 22/05 Q1029
ESST 261320Z AUTO 33005KT 290V020 9999 NCD 26/11 Q1028
ESNU 261320Z 17010KT CAVOK 17/04 Q1029
ESCM 261320Z VRB02KT CAVOK 26/07 Q1027
ESOW 261320Z 19009KT CAVOK 25/03 Q1027
ESPE 261320Z AUTO 32016KT 9999 FEW210/// 15/M04 Q1029
ESNV 261320Z AUTO 28010KT 9999 FEW170/// 16/M06 Q1030
ESSV 261320Z 15009KT CAVOK 21/12 Q1027